Time;durP1;ratioP1;P1;durP2;ratioP2;P2;SDS_P1;SDS_P2;PMS_P1;PMS_P2;Temp;Humidity;BMP_temperature;BMP_pressure;BME280_temperature;BME280_humidity;BME280_pressure;Samples;Min_cycle;Max_cycle;Signal;HPM_P1;HPM_P2
2023/05/07 00:01:46;;;;;;;0.00;0.00;;;17.10;99.90;;;;;;5034307;28;20125;-74
2023/05/07 00:04:13;;;;;;;0.00;0.00;;;17.20;99.90;;;;;;5051947;28;20033;-73
2023/05/07 00:06:39;;;;;;;0.00;0.00;;;17.20;99.90;;;;;;5055334;28;20369;-74
2023/05/07 00:09:06;;;;;;;0.00;0.00;;;17.20;99.90;;;;;;5055136;28;20033;-73
2023/05/07 00:11:32;;;;;;;0.00;0.00;;;17.30;99.90;;;;;;5036658;28;20018;-74
2023/05/07 00:13:58;;;;;;;0.00;0.00;;;17.30;99.90;;;;;;5055181;28;20040;-72
2023/05/07 00:16:24;;;;;;;0.00;0.00;;;17.30;99.90;;;;;;5055095;28;20025;-73
2023/05/07 00:18:50;;;;;;;0.00;0.00;;;17.30;99.90;;;;;;5054769;28;20088;-74
2023/05/07 00:21:16;;;;;;;0.00;0.00;;;17.40;99.90;;;;;;5055113;28;20041;-74
2023/05/07 00:23:42;;;;;;;1.42;1.33;;;17.40;99.90;;;;;;5054830;28;20021;-72
2023/05/07 00:26:07;;;;;;;2.60;2.50;;;17.40;99.90;;;;;;5054992;28;20400;-74
2023/05/07 00:28:33;;;;;;;0.00;0.00;;;17.50;99.90;;;;;;5055024;28;20101;-74
2023/05/07 00:30:59;;;;;;;0.50;0.50;;;17.40;99.90;;;;;;5033445;28;20053;-70
2023/05/07 00:33:26;;;;;;;0.00;0.00;;;17.70;99.90;;;;;;5031891;28;20029;-70
2023/05/07 00:35:53;;;;;;;0.00;0.00;;;17.70;99.90;;;;;;5033723;28;20116;-70
2023/05/07 00:38:19;;;;;;;0.00;0.00;;;17.60;99.90;;;;;;5047941;28;20017;-71
2023/05/07 00:40:45;;;;;;;0.00;0.00;;;17.70;99.90;;;;;;5050944;28;20481;-69
2023/05/07 00:43:12;;;;;;;0.10;0.10;;;17.70;99.90;;;;;;5054775;28;20025;-70
2023/05/07 00:45:38;;;;;;;0.00;0.00;;;17.60;99.90;;;;;;5054741;28;20095;-72
2023/05/07 00:48:04;;;;;;;0.00;0.00;;;17.50;99.90;;;;;;5054704;28;20036;-70
2023/05/07 00:50:30;;;;;;;0.10;0.10;;;17.50;99.90;;;;;;5050720;28;20033;-71
2023/05/07 00:52:56;;;;;;;0.30;0.30;;;17.60;99.90;;;;;;5072550;28;20031;-72
2023/05/07 00:55:23;;;;;;;0.00;0.00;;;17.60;99.90;;;;;;5074320;28;20024;-74
2023/05/07 00:57:50;;;;;;;0.10;0.10;;;17.70;99.90;;;;;;5074247;28;20079;-71
2023/05/07 01:00:16;;;;;;;0.00;0.00;;;17.50;99.90;;;;;;5072895;28;20401;-72
2023/05/07 01:02:42;;;;;;;0.38;0.38;;;17.50;99.90;;;;;;5074249;28;20082;-73
2023/05/07 01:05:11;;;;;;;0.00;0.00;;;17.30;99.90;;;;;;5073070;28;20032;-70
2023/05/07 01:07:38;;;;;;;0.52;0.52;;;17.40;99.90;;;;;;5073673;28;20005;-70
2023/05/07 01:10:05;;;;;;;0.00;0.00;;;17.10;99.90;;;;;;5074134;28;20461;-70
2023/05/07 01:12:31;;;;;;;0.45;0.45;;;17.10;99.90;;;;;;5073964;28;20037;-72
2023/05/07 01:14:58;;;;;;;0.00;0.00;;;17.00;99.90;;;;;;5072736;28;20499;-70
2023/05/07 01:17:24;;;;;;;0.20;0.20;;;16.90;99.90;;;;;;5072652;28;20028;-69
2023/05/07 01:19:52;;;;;;;0.00;0.00;;;16.90;99.90;;;;;;5072598;28;20165;-70
2023/05/07 01:22:38;;;;;;;0.00;0.00;;;16.90;99.90;;;;;;5072006;28;20036;-71
2023/05/07 01:25:07;;;;;;;0.73;0.73;;;16.80;99.90;;;;;;5072041;28;20016;-73
2023/05/07 01:27:33;;;;;;;0.00;0.00;;;16.80;99.90;;;;;;5072359;28;20182;-73
2023/05/07 01:29:59;;;;;;;0.00;0.00;;;16.80;99.90;;;;;;5071613;28;20023;-72
2023/05/07 01:32:33;;;;;;;0.05;0.05;;;16.70;99.90;;;;;;5072692;28;20024;-69
2023/05/07 01:35:00;;;;;;;0.00;0.00;;;16.50;99.90;;;;;;5072437;28;20051;-70
2023/05/07 01:37:26;;;;;;;0.10;0.10;;;16.20;99.90;;;;;;5072895;28;20067;-69
2023/05/07 01:39:53;;;;;;;0.05;0.05;;;16.00;99.90;;;;;;5072168;28;20032;-70
2023/05/07 01:42:19;;;;;;;0.35;0.35;;;16.10;99.90;;;;;;5072253;28;20032;-69
2023/05/07 01:44:46;;;;;;;4.38;1.05;;;16.10;99.90;;;;;;5071806;28;20036;-69
2023/05/07 01:47:13;;;;;;;0.17;0.17;;;16.10;99.90;;;;;;5071943;28;20034;-69
2023/05/07 01:49:40;;;;;;;0.00;0.00;;;16.00;99.90;;;;;;5071974;28;20026;-69
2023/05/07 01:52:06;;;;;;;0.00;0.00;;;15.90;99.90;;;;;;5071488;28;20024;-68
2023/05/07 01:54:32;;;;;;;0.00;0.00;;;16.10;99.90;;;;;;5073489;28;20035;-69
2023/05/07 01:56:58;;;;;;;0.10;0.10;;;16.20;99.90;;;;;;5071839;28;20036;-69
2023/05/07 01:59:24;;;;;;;0.75;0.75;;;16.20;99.90;;;;;;5071862;28;20545;-69
2023/05/07 02:01:50;;;;;;;0.10;0.10;;;16.40;99.90;;;;;;5071811;28;20036;-69
2023/05/07 02:04:16;;;;;;;0.10;0.10;;;16.50;99.90;;;;;;5071638;28;20016;-68
2023/05/07 02:06:42;;;;;;;0.00;0.00;;;16.50;99.90;;;;;;5073284;28;20039;-68
2023/05/07 02:09:10;;;;;;;0.00;0.00;;;16.50;99.90;;;;;;5071550;28;20047;-70
2023/05/07 02:11:38;;;;;;;0.00;0.00;;;16.50;99.90;;;;;;5071698;28;20024;-70
2023/05/07 02:14:05;;;;;;;0.10;0.10;;;16.50;99.90;;;;;;5054981;28;20484;-69
2023/05/07 02:16:31;;;;;;;0.10;0.10;;;16.50;99.90;;;;;;5071619;28;20070;-70
2023/05/07 02:18:57;;;;;;;1.65;1.35;;;16.40;99.90;;;;;;5072712;28;20028;-71
2023/05/07 02:21:24;;;;;;;0.08;0.08;;;16.00;99.90;;;;;;5071560;28;20116;-69
2023/05/07 02:23:50;;;;;;;0.10;0.10;;;16.20;99.90;;;;;;5072752;28;20029;-73
2023/05/07 02:26:16;;;;;;;0.90;0.90;;;16.30;99.90;;;;;;5071512;28;20435;-73
2023/05/07 02:28:42;;;;;;;0.00;0.00;;;16.50;99.90;;;;;;5071535;28;20059;-71
2023/05/07 02:31:08;;;;;;;0.00;0.00;;;16.60;99.90;;;;;;5071452;28;20058;-70
2023/05/07 02:33:35;;;;;;;0.00;0.00;;;16.70;99.90;;;;;;5071490;28;20056;-73
2023/05/07 02:36:07;;;;;;;0.00;0.00;;;16.80;99.90;;;;;;5054715;28;20056;-69
2023/05/07 02:38:34;;;;;;;0.10;0.10;;;16.80;99.90;;;;;;5071326;28;20031;-70
2023/05/07 02:41:00;;;;;;;0.00;0.00;;;16.80;99.90;;;;;;5054307;28;20041;-70
2023/05/07 02:43:26;;;;;;;0.00;0.00;;;16.70;99.90;;;;;;5072657;28;20069;-69
2023/05/07 02:46:06;;;;;;;0.00;0.00;;;16.70;99.90;;;;;;5054823;28;20118;-71
2023/05/07 02:48:34;;;;;;;0.00;0.00;;;16.80;99.90;;;;;;5038186;28;20094;-71
2023/05/07 02:51:02;;;;;;;0.00;0.00;;;16.70;99.90;;;;;;5054502;28;20071;-72
2023/05/07 02:53:29;;;;;;;0.00;0.00;;;16.60;99.90;;;;;;5054436;28;20029;-72
2023/05/07 02:55:59;;;;;;;0.10;0.10;;;16.60;99.90;;;;;;5054621;28;20028;-72
2023/05/07 02:58:26;;;;;;;0.00;0.00;;;16.70;99.90;;;;;;5072260;28;20280;-70
2023/05/07 03:00:52;;;;;;;0.65;0.65;;;16.70;99.90;;;;;;5054545;28;20473;-70
2023/05/07 03:03:51;;;;;;;0.00;0.00;;;16.60;99.90;;;;;;5066439;28;20041;-71
2023/05/07 03:06:17;;;;;;;0.30;0.30;;;16.40;99.90;;;;;;5072564;28;20535;-72
2023/05/07 03:08:43;;;;;;;0.00;0.00;;;16.30;99.90;;;;;;5072237;28;20107;-71
2023/05/07 03:11:09;;;;;;;0.00;0.00;;;16.30;99.90;;;;;;5072117;28;20021;-72
2023/05/07 03:13:35;;;;;;;0.15;0.15;;;16.30;99.90;;;;;;5038081;28;20097;-72
2023/05/07 03:16:01;;;;;;;0.10;0.10;;;16.30;99.90;;;;;;5054165;28;20366;-70
2023/05/07 03:18:27;;;;;;;0.15;0.15;;;16.40;99.90;;;;;;5054128;28;20025;-69
2023/05/07 03:20:53;;;;;;;0.17;0.17;;;16.60;99.90;;;;;;5054085;28;20029;-70
2023/05/07 03:23:19;;;;;;;1.63;1.52;;;16.70;99.90;;;;;;5054255;28;20046;-73
2023/05/07 03:25:45;;;;;;;0.03;0.03;;;16.50;99.90;;;;;;5072005;28;20040;-71
2023/05/07 03:28:11;;;;;;;0.20;0.20;;;16.50;99.90;;;;;;5054366;28;20016;-72
2023/05/07 03:30:42;;;;;;;1.80;0.63;;;16.50;99.90;;;;;;5054169;28;20028;-70
2023/05/07 03:33:08;;;;;;;0.00;0.00;;;16.60;99.90;;;;;;5071923;28;20023;-73
2023/05/07 03:35:35;;;;;;;0.10;0.10;;;16.60;99.90;;;;;;5054000;28;20020;-72
2023/05/07 03:38:01;;;;;;;0.52;0.17;;;16.60;99.90;;;;;;5054121;28;20123;-72
2023/05/07 03:40:30;;;;;;;0.30;0.30;;;16.60;99.90;;;;;;5066499;28;20051;-71
2023/05/07 03:42:55;;;;;;;0.17;0.17;;;16.50;99.90;;;;;;5070753;28;20036;-73
2023/05/07 03:45:25;;;;;;;0.03;0.03;;;16.50;99.90;;;;;;5070860;28;20024;-74
2023/05/07 03:47:59;;;;;;;0.05;0.05;;;16.50;99.90;;;;;;5070460;28;20179;-72
2023/05/07 03:50:25;;;;;;;0.05;0.05;;;16.50;99.90;;;;;;5072265;28;20096;-73
2023/05/07 03:52:50;;;;;;;0.22;0.22;;;16.30;99.90;;;;;;5073146;28;20040;-72
2023/05/07 03:55:20;;;;;;;0.10;0.10;;;16.00;99.90;;;;;;5058120;28;20016;-73
2023/05/07 03:57:51;;;;;;;0.10;0.10;;;16.00;99.90;;;;;;5074317;28;20519;-70
2023/05/07 04:00:20;;;;;;;0.00;0.00;;;16.10;99.90;;;;;;5057617;28;20032;-73
2023/05/07 04:02:48;;;;;;;0.10;0.10;;;16.40;99.90;;;;;;5075315;28;20127;-74
2023/05/07 04:05:18;;;;;;;0.00;0.00;;;16.50;99.90;;;;;;5073899;28;20125;-71
2023/05/07 04:07:48;;;;;;;0.13;0.13;;;16.60;99.90;;;;;;5074096;28;20109;-74
2023/05/07 04:10:18;;;;;;;0.00;0.00;;;16.60;99.90;;;;;;5074190;28;20039;-74
2023/05/07 04:12:47;;;;;;;0.00;0.00;;;16.50;99.90;;;;;;5073429;28;20028;-75
2023/05/07 04:15:17;;;;;;;0.10;0.10;;;16.50;99.90;;;;;;5073239;28;20036;-75
2023/05/07 04:17:43;;;;;;;0.08;0.08;;;16.60;99.90;;;;;;5074608;28;20033;-76
2023/05/07 04:20:15;;;;;;;0.00;0.00;;;16.70;99.90;;;;;;5073766;28;20035;-71
2023/05/07 04:22:42;;;;;;;0.10;0.10;;;16.70;99.90;;;;;;5073710;28;20028;-71
2023/05/07 04:25:11;;;;;;;0.00;0.00;;;16.70;99.90;;;;;;5073661;28;20416;-70
2023/05/07 04:27:37;;;;;;;0.00;0.00;;;16.90;99.90;;;;;;5073440;28;20024;-70
2023/05/07 04:30:05;;;;;;;0.00;0.00;;;16.90;99.90;;;;;;5073459;28;20025;-70
2023/05/07 04:32:37;;;;;;;0.00;0.00;;;16.90;99.90;;;;;;5073387;28;20119;-71
2023/05/07 04:35:03;;;;;;;0.00;0.00;;;17.10;99.90;;;;;;5073665;28;20111;-70
2023/05/07 04:37:32;;;;;;;0.00;0.00;;;17.10;99.90;;;;;;5073366;28;20487;-70
2023/05/07 04:39:58;;;;;;;0.00;0.00;;;17.00;99.90;;;;;;5073114;28;20033;-71
2023/05/07 04:42:25;;;;;;;0.00;0.00;;;17.00;99.90;;;;;;5073542;28;20043;-70
2023/05/07 04:44:53;;;;;;;0.00;0.00;;;17.00;99.90;;;;;;5072965;28;20021;-71
2023/05/07 04:47:19;;;;;;;0.00;0.00;;;16.90;99.90;;;;;;5073319;28;20020;-71
2023/05/07 04:49:46;;;;;;;0.00;0.00;;;17.10;99.90;;;;;;5073007;28;20354;-73
2023/05/07 04:52:12;;;;;;;0.00;0.00;;;17.10;99.90;;;;;;5073270;28;20039;-72
2023/05/07 04:54:38;;;;;;;0.00;0.00;;;17.20;99.90;;;;;;5073202;28;20396;-73
2023/05/07 04:57:05;;;;;;;0.00;0.00;;;17.00;99.90;;;;;;5073019;28;20017;-72
2023/05/07 04:59:32;;;;;;;0.00;0.00;;;16.90;99.90;;;;;;5056331;28;20098;-76
2023/05/07 05:01:58;;;;;;;0.43;0.43;;;17.00;99.90;;;;;;5074041;28;20029;-71
2023/05/07 05:04:24;;;;;;;0.00;0.00;;;16.90;99.90;;;;;;5073021;28;20028;-73
2023/05/07 05:06:50;;;;;;;0.05;0.05;;;16.90;99.90;;;;;;5072809;28;20447;-74
2023/05/07 05:09:17;;;;;;;1.08;0.50;;;17.00;99.90;;;;;;5072776;28;20059;-74
2023/05/07 05:11:43;;;;;;;0.25;0.25;;;17.00;99.90;;;;;;5072865;28;20020;-72
2023/05/07 05:14:09;;;;;;;0.22;0.22;;;17.00;99.90;;;;;;5072470;28;20103;-72
2023/05/07 05:16:35;;;;;;;0.00;0.00;;;17.00;99.90;;;;;;5074389;28;20024;-75
2023/05/07 05:19:02;;;;;;;0.00;0.00;;;17.10;99.90;;;;;;5072609;28;20035;-73
2023/05/07 05:21:29;;;;;;;0.00;0.00;;;17.00;99.90;;;;;;5072504;28;20775;-73
2023/05/07 05:24:00;;;;;;;0.05;0.05;;;16.80;99.90;;;;;;5072409;28;20031;-74
2023/05/07 05:26:25;;;;;;;0.00;0.00;;;16.90;99.90;;;;;;5073764;28;20111;-75
2023/05/07 05:28:51;;;;;;;0.00;0.00;;;17.00;99.90;;;;;;5073600;28;20104;-71
2023/05/07 05:31:21;;;;;;;0.00;0.00;;;17.00;99.90;;;;;;5072296;28;20032;-71
2023/05/07 05:33:48;;;;;;;0.00;0.00;;;17.00;99.90;;;;;;5072397;28;20495;-75
2023/05/07 05:36:14;;;;;;;0.00;0.00;;;17.00;99.90;;;;;;5072261;28;20024;-70
2023/05/07 05:38:40;;;;;;;0.15;0.15;;;17.10;99.90;;;;;;5072101;28;20016;-73
2023/05/07 05:41:07;;;;;;;0.03;0.03;;;17.10;99.90;;;;;;5055431;28;20033;-72
2023/05/07 05:43:34;;;;;;;0.00;0.00;;;17.20;99.90;;;;;;5055395;28;20463;-74
2023/05/07 05:46:00;;;;;;;0.00;0.00;;;17.30;99.90;;;;;;5073308;28;20067;-73
2023/05/07 05:48:26;;;;;;;0.00;0.00;;;17.20;99.90;;;;;;5055443;28;20048;-75
2023/05/07 05:50:52;;;;;;;0.00;0.00;;;17.30;99.90;;;;;;5055513;28;20109;-73
2023/05/07 05:53:18;;;;;;;0.00;0.00;;;17.20;99.90;;;;;;5055252;28;20048;-75
2023/05/07 05:55:44;;;;;;;0.10;0.10;;;17.10;99.90;;;;;;5055201;28;20549;-74
2023/05/07 05:58:11;;;;;;;0.00;0.00;;;17.20;99.90;;;;;;5054965;28;20035;-77
2023/05/07 06:00:42;;;;;;;0.30;0.30;;;17.10;99.90;;;;;;5055264;28;20039;-73
2023/05/07 06:03:08;;;;;;;0.00;0.00;;;17.30;99.90;;;;;;5055101;28;20024;-73
2023/05/07 06:05:35;;;;;;;0.00;0.00;;;17.40;99.90;;;;;;5055138;28;20086;-76
2023/05/07 06:08:01;;;;;;;0.00;0.00;;;17.30;99.90;;;;;;5055074;28;20020;-74
2023/05/07 06:10:31;;;;;;;0.52;0.52;;;17.10;99.90;;;;;;5055044;28;20079;-75
2023/05/07 06:12:57;;;;;;;0.00;0.00;;;17.30;99.90;;;;;;5054853;28;20419;-74
2023/05/07 06:15:23;;;;;;;3.97;1.17;;;17.50;99.90;;;;;;5072528;28;20027;-75
2023/05/07 06:17:49;;;;;;;0.00;0.00;;;17.10;99.90;;;;;;5054660;28;20029;-75
2023/05/07 06:20:15;;;;;;;0.00;0.00;;;16.80;99.90;;;;;;5054929;28;20154;-75
2023/05/07 06:22:41;;;;;;;0.00;0.00;;;17.10;99.90;;;;;;5054558;28;20095;-74
2023/05/07 06:25:09;;;;;;;0.00;0.00;;;17.30;99.90;;;;;;5054802;28;20103;-75
2023/05/07 06:27:36;;;;;;;0.25;0.25;;;17.40;99.90;;;;;;5054514;28;20484;-73
2023/05/07 06:30:02;;;;;;;0.00;0.00;;;17.40;99.90;;;;;;5055189;28;20038;-74
2023/05/07 06:32:28;;;;;;;1.85;1.25;;;17.30;99.90;;;;;;5055080;28;20087;-75
2023/05/07 06:34:55;;;;;;;0.05;0.05;;;17.40;99.90;;;;;;5054563;28;20457;-74
2023/05/07 06:37:21;;;;;;;0.15;0.15;;;17.70;99.90;;;;;;5055129;28;20086;-75
2023/05/07 06:39:54;;;;;;;0.00;0.00;;;17.90;99.90;;;;;;5061902;28;20436;-75
2023/05/07 06:42:20;;;;;;;0.00;0.00;;;17.90;99.90;;;;;;5072497;28;20056;-73
2023/05/07 06:44:47;;;;;;;0.10;0.10;;;17.90;99.90;;;;;;5071152;28;20017;-74
2023/05/07 06:47:16;;;;;;;2.75;1.65;;;17.70;99.90;;;;;;5071519;28;20069;-74
2023/05/07 06:49:43;;;;;;;3.83;1.98;;;17.60;99.90;;;;;;5071167;28;20020;-75
2023/05/07 06:52:09;;;;;;;1.05;0.60;;;17.30;99.90;;;;;;5071327;28;20495;-75
2023/05/07 06:54:34;;;;;;;1.05;1.00;;;17.20;99.90;;;;;;5071371;28;20017;-75
2023/05/07 06:57:00;;;;;;;2.35;1.58;;;17.10;99.90;;;;;;5070986;28;20028;-75
2023/05/07 06:59:27;;;;;;;0.00;0.00;;;17.30;99.90;;;;;;5071256;28;20027;-76
2023/05/07 07:01:53;;;;;;;0.10;0.10;;;17.20;99.90;;;;;;5071025;28;20043;-75
2023/05/07 07:04:22;;;;;;;0.10;0.10;;;17.30;99.90;;;;;;5071011;28;20017;-75
2023/05/07 07:06:56;;;;;;;0.20;0.20;;;17.50;99.90;;;;;;5071150;28;20124;-76
2023/05/07 07:09:22;;;;;;;0.15;0.15;;;17.90;99.90;;;;;;5071116;28;20021;-75
2023/05/07 07:11:48;;;;;;;0.98;0.98;;;17.60;99.90;;;;;;5070775;28;20024;-76
2023/05/07 07:14:14;;;;;;;0.00;0.00;;;17.70;99.90;;;;;;5071008;28;20355;-74
2023/05/07 07:16:46;;;;;;;0.20;0.20;;;17.60;99.90;;;;;;5071254;28;20090;-71
2023/05/07 07:19:15;;;;;;;1.95;1.30;;;17.90;99.90;;;;;;5072130;28;20063;-70
2023/05/07 07:21:42;;;;;;;0.30;0.30;;;17.80;99.90;;;;;;5071079;28;20036;-70
2023/05/07 07:24:09;;;;;;;0.10;0.10;;;18.10;99.90;;;;;;5070411;28;20107;-69
2023/05/07 07:26:35;;;;;;;0.00;0.00;;;17.90;99.90;;;;;;5071270;28;20060;-70
2023/05/07 07:29:01;;;;;;;0.17;0.17;;;18.10;99.90;;;;;;5074176;28;20021;-70
2023/05/07 07:31:27;;;;;;;0.98;0.88;;;18.10;99.90;;;;;;5075895;28;20055;-72
2023/05/07 07:33:53;;;;;;;0.85;0.55;;;18.10;99.90;;;;;;5074631;28;20028;-73
2023/05/07 07:36:19;;;;;;;0.95;0.40;;;18.00;99.90;;;;;;5074465;28;20020;-70
2023/05/07 07:38:45;;;;;;;0.00;0.00;;;18.00;99.90;;;;;;5057904;28;20027;-72
2023/05/07 07:41:12;;;;;;;0.57;0.57;;;18.00;99.90;;;;;;5057558;28;20040;-74
2023/05/07 07:43:37;;;;;;;2.35;1.45;;;17.90;99.90;;;;;;5058025;28;20182;-70
2023/05/07 07:46:04;;;;;;;0.60;0.60;;;18.00;99.90;;;;;;5075415;28;20122;-74
2023/05/07 07:48:30;;;;;;;3.58;1.98;;;17.60;99.90;;;;;;5058068;28;20030;-75
2023/05/07 07:50:58;;;;;;;0.10;0.10;;;17.20;99.90;;;;;;5057650;28;20031;-75
2023/05/07 07:53:23;;;;;;;0.10;0.10;;;17.40;99.90;;;;;;5057228;28;20107;-71
2023/05/07 07:55:50;;;;;;;0.40;0.40;;;17.70;99.90;;;;;;5057498;28;20503;-71
2023/05/07 07:58:20;;;;;;;0.70;0.70;;;18.20;99.90;;;;;;5057559;28;20040;-74
2023/05/07 08:00:47;;;;;;;0.00;0.00;;;18.50;99.90;;;;;;5057321;28;20135;-75
2023/05/07 08:03:14;;;;;;;0.95;0.32;;;18.70;99.90;;;;;;5057628;28;20027;-74
2023/05/07 08:05:43;;;;;;;1.80;1.17;;;18.40;99.90;;;;;;5057203;28;20016;-74
2023/05/07 08:08:10;;;;;;;0.70;0.70;;;17.80;99.90;;;;;;5057129;28;20354;-75
2023/05/07 08:10:38;;;;;;;3.00;2.53;;;18.10;99.90;;;;;;5057261;28;20082;-74
2023/05/07 08:13:08;;;;;;;0.00;0.00;;;18.20;99.90;;;;;;5057423;28;20020;-74
2023/05/07 08:15:36;;;;;;;0.70;0.43;;;18.10;99.90;;;;;;5057181;28;20078;-73
2023/05/07 08:18:02;;;;;;;1.38;1.27;;;18.30;99.90;;;;;;5057161;28;20465;-73
2023/05/07 08:20:29;;;;;;;1.02;0.95;;;18.00;99.90;;;;;;5057174;28;20020;-74
2023/05/07 08:22:56;;;;;;;0.50;0.50;;;18.00;99.90;;;;;;5056999;28;20055;-73
2023/05/07 08:25:22;;;;;;;0.75;0.73;;;17.80;99.90;;;;;;5075123;28;20017;-74
2023/05/07 08:27:48;;;;;;;0.38;0.38;;;18.10;99.90;;;;;;5074996;28;20078;-73
2023/05/07 08:30:15;;;;;;;4.88;2.78;;;17.80;99.90;;;;;;5057096;28;20119;-74
2023/05/07 08:32:41;;;;;;;2.88;2.67;;;18.10;99.90;;;;;;5056962;28;20032;-74
2023/05/07 08:35:07;;;;;;;1.02;0.98;;;18.00;99.90;;;;;;5040204;28;20028;-75
2023/05/07 08:37:32;;;;;;;0.20;0.20;;;17.80;99.90;;;;;;5074815;28;20056;-75
2023/05/07 08:39:59;;;;;;;3.40;2.08;;;17.90;99.90;;;;;;5064347;28;20502;-74
2023/05/07 08:42:32;;;;;;;8.43;4.82;;;17.90;99.90;;;;;;5073634;28;20033;-75
2023/05/07 08:44:59;;;;;;;1.20;1.10;;;17.80;99.90;;;;;;5073678;28;20477;-75
2023/05/07 08:47:33;;;;;;;0.00;0.00;;;17.70;99.90;;;;;;5074047;28;20090;-74
2023/05/07 08:50:01;;;;;;;1.25;0.90;;;17.60;99.90;;;;;;5073302;28;20016;-73
2023/05/07 08:52:27;;;;;;;1.63;1.35;;;17.60;99.90;;;;;;5072775;28;20044;-75
2023/05/07 08:54:54;;;;;;;0.43;0.32;;;17.50;99.90;;;;;;5073051;28;20353;-75
2023/05/07 08:57:23;;;;;;;7.18;1.75;;;17.60;99.90;;;;;;5073093;28;20119;-76
2023/05/07 08:59:49;;;;;;;0.10;0.10;;;17.50;99.90;;;;;;5072943;28;20029;-76
2023/05/07 09:02:16;;;;;;;0.50;0.50;;;17.60;99.90;;;;;;5072690;28;20059;-75
2023/05/07 09:04:42;;;;;;;13.90;5.40;;;18.00;99.90;;;;;;5073140;28;20033;-75
2023/05/07 09:07:08;;;;;;;0.13;0.13;;;17.70;99.90;;;;;;5072279;28;20021;-76
2023/05/07 09:09:39;;;;;;;7.18;3.50;;;17.50;99.90;;;;;;5057290;28;20043;-75
2023/05/07 09:12:06;;;;;;;2.97;1.42;;;17.60;99.90;;;;;;5072432;28;20111;-75
2023/05/07 09:14:34;;;;;;;2.08;0.75;;;17.60;99.90;;;;;;5073032;28;20086;-76
2023/05/07 09:17:01;;;;;;;0.77;0.77;;;17.60;99.90;;;;;;5072530;28;20079;-75
2023/05/07 09:19:27;;;;;;;11.70;1.17;;;17.70;99.90;;;;;;5072388;28;20025;-76
2023/05/07 09:22:00;;;;;;;0.25;0.25;;;17.50;99.90;;;;;;5072070;28;20040;-75
2023/05/07 09:24:28;;;;;;;0.10;0.10;;;17.50;99.90;;;;;;5072553;28;20028;-74
2023/05/07 09:26:55;;;;;;;0.63;0.63;;;17.60;99.90;;;;;;5106334;28;20031;-76
2023/05/07 09:29:21;;;;;;;7.55;2.38;;;17.40;99.90;;;;;;5072287;28;20389;-74
2023/05/07 09:31:46;;;;;;;0.10;0.10;;;17.50;99.90;;;;;;5072343;28;20024;-74
2023/05/07 09:34:16;;;;;;;0.08;0.08;;;17.50;99.90;;;;;;5072472;28;20048;-75
2023/05/07 09:36:45;;;;;;;0.52;0.52;;;17.70;99.90;;;;;;5072258;28;20028;-74
2023/05/07 09:39:11;;;;;;;0.10;0.10;;;17.50;99.90;;;;;;5072257;28;20033;-74
2023/05/07 09:41:45;;;;;;;0.10;0.10;;;17.70;99.90;;;;;;5073460;28;20029;-75
2023/05/07 09:44:15;;;;;;;0.43;0.43;;;17.70;99.90;;;;;;5071775;28;20028;-76
2023/05/07 09:46:51;;;;;;;2.28;1.35;;;17.70;99.90;;;;;;5072060;28;20056;-76
2023/05/07 09:49:24;;;;;;;0.00;0.00;;;17.80;99.90;;;;;;5071700;28;20465;-75
2023/05/07 09:51:59;;;;;;;0.00;0.00;;;18.20;99.90;;;;;;5071491;28;20039;-74
2023/05/07 09:54:27;;;;;;;0.35;0.35;;;18.20;99.90;;;;;;5071857;28;20040;-74
2023/05/07 09:56:56;;;;;;;0.00;0.00;;;18.50;99.90;;;;;;5071858;28;20020;-76
2023/05/07 09:59:26;;;;;;;10.55;3.42;;;18.50;99.90;;;;;;5071583;28;20032;-75
2023/05/07 10:01:53;;;;;;;0.00;0.00;;;18.50;99.90;;;;;;5073110;28;20037;-75
2023/05/07 10:04:20;;;;;;;1.90;1.20;;;18.50;99.90;;;;;;5071217;28;20097;-74
2023/05/07 10:06:47;;;;;;;0.80;0.75;;;18.60;99.90;;;;;;5071809;28;20449;-75
2023/05/07 10:09:15;;;;;;;6.07;1.08;;;18.50;99.90;;;;;;5071473;28;20024;-75
2023/05/07 10:11:41;;;;;;;8.98;1.15;;;18.20;99.90;;;;;;5073076;28;20013;-74
2023/05/07 10:14:07;;;;;;;0.20;0.20;;;17.70;99.90;;;;;;5071356;28;20037;-75
2023/05/07 10:16:38;;;;;;;0.10;0.10;;;18.00;99.90;;;;;;5071609;28;20028;-76
2023/05/07 10:19:12;;;;;;;3.72;1.58;;;17.90;99.90;;;;;;5071038;28;20067;-76
2023/05/07 10:21:51;;;;;;;0.00;0.00;;;17.60;99.90;;;;;;5071906;28;20128;-76
2023/05/07 10:24:24;;;;;;;0.40;0.40;;;17.80;99.90;;;;;;5071243;28;20046;-75
2023/05/07 10:26:52;;;;;;;0.10;0.10;;;17.50;99.90;;;;;;5071659;28;20031;-76
2023/05/07 10:30:05;;;;;;;0.30;0.15;;;17.60;99.90;;;;;;5071327;28;20025;-75
2023/05/07 10:32:56;;;;;;;0.38;0.38;;;17.80;99.90;;;;;;5028518;28;20060;-76
2023/05/07 10:35:43;;;;;;;0.20;0.20;;;17.70;99.90;;;;;;5071598;28;20500;-70
2023/05/07 10:38:11;;;;;;;1.27;1.10;;;17.90;99.90;;;;;;5071184;28;20025;-71
2023/05/07 10:40:39;;;;;;;41.67;1.55;;;18.00;99.90;;;;;;5071534;28;20032;-70
2023/05/07 10:43:06;;;;;;;0.55;0.55;;;18.00;99.90;;;;;;5070980;28;20020;-70
2023/05/07 10:45:41;;;;;;;1.15;1.02;;;18.10;99.90;;;;;;5071409;28;20024;-70
2023/05/07 10:48:16;;;;;;;0.32;0.32;;;18.00;99.90;;;;;;5070792;28;20496;-70
2023/05/07 10:50:48;;;;;;;0.10;0.10;;;18.00;99.90;;;;;;5071267;28;20032;-71
2023/05/07 10:53:17;;;;;;;1.27;0.52;;;18.10;99.90;;;;;;5072107;28;20048;-70
2023/05/07 10:55:52;;;;;;;0.00;0.00;;;18.10;99.90;;;;;;5071116;28;20477;-70
2023/05/07 10:58:21;;;;;;;0.82;0.82;;;18.40;99.90;;;;;;5054817;28;20031;-72
2023/05/07 11:00:49;;;;;;;0.40;0.40;;;18.50;99.90;;;;;;5071305;28;20078;-74
2023/05/07 11:03:23;;;;;;;4.80;1.40;;;18.60;99.90;;;;;;5074922;28;20434;-74
2023/05/07 11:06:13;;;;;;;0.10;0.10;;;18.20;99.90;;;;;;5074912;28;20477;-74
2023/05/07 11:08:59;;;;;;;2.28;1.50;;;17.90;99.90;;;;;;5074979;28;20060;-75
2023/05/07 11:11:55;;;;;;;0.00;0.00;;;17.70;99.90;;;;;;5076056;28;20112;-74
2023/05/07 11:14:45;;;;;;;2.00;0.57;;;17.50;99.90;;;;;;5076147;28;20492;-74
2023/05/07 11:17:22;;;;;;;0.20;0.20;;;17.80;99.90;;;;;;5074945;28;20420;-74
2023/05/07 11:19:57;;;;;;;0.32;0.32;;;17.90;99.90;;;;;;5074894;28;20058;-75
2023/05/07 11:22:47;;;;;;;5.25;1.80;;;17.80;99.90;;;;;;5076008;28;20037;-75
2023/05/07 11:25:19;;;;;;;8.80;2.22;;;18.00;99.90;;;;;;5074516;28;20031;-74
2023/05/07 11:27:49;;;;;;;2.63;0.60;;;17.80;99.90;;;;;;5058572;28;20020;-73
2023/05/07 11:30:18;;;;;;;0.10;0.10;;;17.80;99.90;;;;;;5074819;28;20032;-74
2023/05/07 11:32:48;;;;;;;0.08;0.08;;;17.80;99.90;;;;;;5074584;28;20118;-74
2023/05/07 11:35:16;;;;;;;0.20;0.20;;;18.20;99.90;;;;;;5074148;28;20481;-75
2023/05/07 11:37:45;;;;;;;0.63;0.63;;;18.30;99.90;;;;;;5074702;28;20119;-75
2023/05/07 11:40:13;;;;;;;0.00;0.00;;;18.20;99.90;;;;;;5074207;28;20036;-75
2023/05/07 11:42:42;;;;;;;0.10;0.10;;;18.30;99.90;;;;;;5075899;28;20085;-74
2023/05/07 11:45:09;;;;;;;0.00;0.00;;;18.20;99.90;;;;;;5074237;28;20052;-75
2023/05/07 11:47:35;;;;;;;0.00;0.00;;;18.30;99.90;;;;;;5075597;28;20021;-74
2023/05/07 11:50:07;;;;;;;0.20;0.20;;;18.50;99.90;;;;;;5075260;28;20021;-74
2023/05/07 11:52:33;;;;;;;0.05;0.05;;;18.40;99.90;;;;;;5075538;28;20037;-74
2023/05/07 11:55:01;;;;;;;0.00;0.00;;;18.40;99.90;;;;;;5075490;28;20017;-75
2023/05/07 11:57:27;;;;;;;0.32;0.32;;;18.60;99.90;;;;;;5074294;28;20036;-74
2023/05/07 11:59:58;;;;;;;0.10;0.10;;;18.30;99.90;;;;;;5075118;28;20369;-74
2023/05/07 12:02:27;;;;;;;1.50;0.85;;;18.20;99.90;;;;;;5075321;28;20136;-74
2023/05/07 12:04:57;;;;;;;0.15;0.15;;;18.40;99.90;;;;;;5075650;28;20044;-74
2023/05/07 12:07:24;;;;;;;0.00;0.00;;;18.40;99.90;;;;;;5075242;28;20033;-74
2023/05/07 12:09:50;;;;;;;0.40;0.25;;;18.70;99.90;;;;;;5074342;28;20103;-74
2023/05/07 12:12:17;;;;;;;0.10;0.10;;;18.60;99.90;;;;;;5075242;28;20090;-74
2023/05/07 12:14:44;;;;;;;0.32;0.32;;;18.80;99.90;;;;;;5074569;28;20112;-74
2023/05/07 12:17:11;;;;;;;0.00;0.00;;;19.10;99.90;;;;;;5075343;28;20032;-75
2023/05/07 12:19:38;;;;;;;2.55;1.65;;;19.10;99.90;;;;;;5075539;28;20385;-75
2023/05/07 12:22:05;;;;;;;1.45;0.75;;;19.40;99.90;;;;;;5075240;28;20044;-75
2023/05/07 12:25:03;;;;;;;0.20;0.10;;;19.50;99.90;;;;;;5074110;28;20409;-75
2023/05/07 12:27:30;;;;;;;0.40;0.40;;;19.40;99.90;;;;;;5041354;28;20040;-75
2023/05/07 12:29:58;;;;;;;0.63;0.63;;;19.00;99.90;;;;;;5075239;28;20028;-74
2023/05/07 12:32:24;;;;;;;0.70;0.70;;;19.40;99.90;;;;;;5074135;28;20053;-74
2023/05/07 12:34:51;;;;;;;2.17;0.63;;;19.30;99.90;;;;;;5075042;28;20028;-71
2023/05/07 12:37:24;;;;;;;0.00;0.00;;;18.80;99.90;;;;;;5073469;28;20073;-70
2023/05/07 12:40:06;;;;;;;;;;;19.20;99.90;;;;;;5074863;28;20025;-71
2023/05/07 12:42:35;;;;;;;0.30;0.30;;;19.40;99.90;;;;;;5056725;28;20007;-71
2023/05/07 12:45:16;;;;;;;0.00;0.00;;;19.70;99.90;;;;;;5074361;28;20016;-71
2023/05/07 12:47:46;;;;;;;0.55;0.17;;;20.20;99.90;;;;;;5074745;28;20048;-71
2023/05/07 12:50:15;;;;;;;0.00;0.00;;;20.10;99.90;;;;;;5074609;28;20017;-71
2023/05/07 12:52:43;;;;;;;2.20;0.47;;;20.50;99.90;;;;;;5056174;28;20067;-70
2023/05/07 12:55:12;;;;;;;0.10;0.10;;;20.60;99.90;;;;;;5074363;28;20032;-70